sensor_id;sensor_type;location;lat;lon;timestamp;temperature;humidity
26621;DHT22;14253;44.840;10.444;2023-01-25T00:01:35;5.40;1.00
26621;DHT22;14253;44.840;10.444;2023-01-25T00:04:01;5.40;1.00
26621;DHT22;14253;44.840;10.444;2023-01-25T00:06:27;5.40;1.00
26621;DHT22;14253;44.840;10.444;2023-01-25T00:08:53;5.40;1.00
26621;DHT22;14253;44.840;10.444;2023-01-25T00:11:19;5.40;1.00
26621;DHT22;14253;44.840;10.444;2023-01-25T00:13:45;5.40;1.00
26621;DHT22;14253;44.840;10.444;2023-01-25T00:16:12;5.40;1.00
26621;DHT22;14253;44.840;10.444;2023-01-25T00:18:38;5.40;1.00
26621;DHT22;14253;44.840;10.444;2023-01-25T00:21:16;5.40;1.00
26621;DHT22;14253;44.840;10.444;2023-01-25T00:23:43;5.40;1.00
26621;DHT22;14253;44.840;10.444;2023-01-25T00:26:09;5.40;1.00
26621;DHT22;14253;44.840;10.444;2023-01-25T00:28:36;5.40;1.00
26621;DHT22;14253;44.840;10.444;2023-01-25T00:31:03;5.40;1.00
26621;DHT22;14253;44.840;10.444;2023-01-25T00:33:48;5.40;1.00
26621;DHT22;14253;44.840;10.444;2023-01-25T00:36:48;5.40;1.00
26621;DHT22;14253;44.840;10.444;2023-01-25T00:39:15;5.40;1.00
26621;DHT22;14253;44.840;10.444;2023-01-25T00:41:42;5.40;1.00
26621;DHT22;14253;44.840;10.444;2023-01-25T00:44:08;5.40;1.00
26621;DHT22;14253;44.840;10.444;2023-01-25T00:46:34;5.40;1.00
26621;DHT22;14253;44.840;10.444;2023-01-25T00:49:00;5.30;1.00
26621;DHT22;14253;44.840;10.444;2023-01-25T00:51:26;5.30;1.00
26621;DHT22;14253;44.840;10.444;2023-01-25T00:53:52;5.30;1.00
26621;DHT22;14253;44.840;10.444;2023-01-25T00:56:18;5.30;1.00
26621;DHT22;14253;44.840;10.444;2023-01-25T00:58:44;5.20;1.00
26621;DHT22;14253;44.840;10.444;2023-01-25T01:01:11;5.20;1.00
26621;DHT22;14253;44.840;10.444;2023-01-25T01:03:38;5.20;1.00
26621;DHT22;14253;44.840;10.444;2023-01-25T01:06:08;5.30;1.00
26621;DHT22;14253;44.840;10.444;2023-01-25T01:08:38;5.20;1.00
26621;DHT22;14253;44.840;10.444;2023-01-25T01:11:07;5.20;1.00
26621;DHT22;14253;44.840;10.444;2023-01-25T01:13:34;5.20;1.00
26621;DHT22;14253;44.840;10.444;2023-01-25T01:16:03;5.20;1.00
26621;DHT22;14253;44.840;10.444;2023-01-25T01:18:37;5.20;1.00
26621;DHT22;14253;44.840;10.444;2023-01-25T01:21:04;5.30;1.00
26621;DHT22;14253;44.840;10.444;2023-01-25T01:23:30;5.30;1.00
26621;DHT22;14253;44.840;10.444;2023-01-25T01:26:04;5.30;1.00
26621;DHT22;14253;44.840;10.444;2023-01-25T01:28:32;5.20;1.00
26621;DHT22;14253;44.840;10.444;2023-01-25T01:31:04;5.30;1.00
26621;DHT22;14253;44.840;10.444;2023-01-25T01:33:34;5.30;1.00
26621;DHT22;14253;44.840;10.444;2023-01-25T01:38:33;5.30;1.00
26621;DHT22;14253;44.840;10.444;2023-01-25T01:41:01;5.30;1.00
26621;DHT22;14253;44.840;10.444;2023-01-25T01:43:27;5.20;1.00
26621;DHT22;14253;44.840;10.444;2023-01-25T01:45:59;5.20;1.00
26621;DHT22;14253;44.840;10.444;2023-01-25T01:48:39;5.30;1.00
26621;DHT22;14253;44.840;10.444;2023-01-25T01:56:42;5.30;1.00
26621;DHT22;14253;44.840;10.444;2023-01-25T01:59:10;5.20;1.00
26621;DHT22;14253;44.840;10.444;2023-01-25T02:01:37;5.30;1.00
26621;DHT22;14253;44.840;10.444;2023-01-25T02:04:05;5.30;1.00
26621;DHT22;14253;44.840;10.444;2023-01-25T02:09:02;5.20;1.00
26621;DHT22;14253;44.840;10.444;2023-01-25T02:11:28;5.20;1.00
26621;DHT22;14253;44.840;10.444;2023-01-25T02:13:57;5.20;1.00
26621;DHT22;14253;44.840;10.444;2023-01-25T02:16:26;5.30;1.00
26621;DHT22;14253;44.840;10.444;2023-01-25T02:18:55;5.20;1.00
26621;DHT22;14253;44.840;10.444;2023-01-25T02:21:23;5.30;1.00
26621;DHT22;14253;44.840;10.444;2023-01-25T02:24:06;5.20;1.00
26621;DHT22;14253;44.840;10.444;2023-01-25T02:26:38;5.20;1.00
26621;DHT22;14253;44.840;10.444;2023-01-25T02:29:06;5.20;1.00
26621;DHT22;14253;44.840;10.444;2023-01-25T02:31:33;5.20;1.00
26621;DHT22;14253;44.840;10.444;2023-01-25T02:33:59;5.20;1.00
26621;DHT22;14253;44.840;10.444;2023-01-25T02:36:34;5.20;1.00
26621;DHT22;14253;44.840;10.444;2023-01-25T02:39:27;5.20;1.00
26621;DHT22;14253;44.840;10.444;2023-01-25T02:41:53;5.20;1.00
26621;DHT22;14253;44.840;10.444;2023-01-25T02:44:26;5.20;1.00
26621;DHT22;14253;44.840;10.444;2023-01-25T02:46:53;5.20;1.00
26621;DHT22;14253;44.840;10.444;2023-01-25T02:49:20;5.20;1.00
26621;DHT22;14253;44.840;10.444;2023-01-25T02:51:52;5.30;1.00
26621;DHT22;14253;44.840;10.444;2023-01-25T02:54:23;5.20;1.00
26621;DHT22;14253;44.840;10.444;2023-01-25T02:56:50;5.20;1.00
26621;DHT22;14253;44.840;10.444;2023-01-25T02:59:17;5.20;1.00
26621;DHT22;14253;44.840;10.444;2023-01-25T03:01:48;5.30;1.00
26621;DHT22;14253;44.840;10.444;2023-01-25T03:04:15;5.30;1.00
26621;DHT22;14253;44.840;10.444;2023-01-25T03:06:41;5.30;1.00
26621;DHT22;14253;44.840;10.444;2023-01-25T03:09:09;5.30;1.00
26621;DHT22;14253;44.840;10.444;2023-01-25T03:11:37;5.30;1.00
26621;DHT22;14253;44.840;10.444;2023-01-25T03:14:03;5.30;1.00
26621;DHT22;14253;44.840;10.444;2023-01-25T03:16:30;5.20;1.00
26621;DHT22;14253;44.840;10.444;2023-01-25T03:18:58;5.20;1.00
26621;DHT22;14253;44.840;10.444;2023-01-25T03:21:24;5.30;1.00
26621;DHT22;14253;44.840;10.444;2023-01-25T03:23:55;5.30;1.00
26621;DHT22;14253;44.840;10.444;2023-01-25T03:26:24;5.30;1.00
26621;DHT22;14253;44.840;10.444;2023-01-25T03:29:19;5.30;1.00
26621;DHT22;14253;44.840;10.444;2023-01-25T03:31:47;5.30;1.00
26621;DHT22;14253;44.840;10.444;2023-01-25T03:34:14;5.30;1.00
26621;DHT22;14253;44.840;10.444;2023-01-25T03:36:41;5.30;1.00
26621;DHT22;14253;44.840;10.444;2023-01-25T03:39:08;5.30;1.00
26621;DHT22;14253;44.840;10.444;2023-01-25T03:41:38;5.30;1.00
26621;DHT22;14253;44.840;10.444;2023-01-25T03:44:08;5.30;1.00
26621;DHT22;14253;44.840;10.444;2023-01-25T03:46:37;5.30;1.00
26621;DHT22;14253;44.840;10.444;2023-01-25T03:49:05;5.30;1.00
26621;DHT22;14253;44.840;10.444;2023-01-25T03:51:32;5.30;1.00
26621;DHT22;14253;44.840;10.444;2023-01-25T03:53:58;5.30;1.00
26621;DHT22;14253;44.840;10.444;2023-01-25T03:56:24;5.30;1.00
26621;DHT22;14253;44.840;10.444;2023-01-25T03:58:57;5.40;1.00
26621;DHT22;14253;44.840;10.444;2023-01-25T04:01:23;5.40;1.00
26621;DHT22;14253;44.840;10.444;2023-01-25T04:03:50;5.30;1.00
26621;DHT22;14253;44.840;10.444;2023-01-25T04:06:16;5.40;1.00
26621;DHT22;14253;44.840;10.444;2023-01-25T04:08:43;5.40;1.00
26621;DHT22;14253;44.840;10.444;2023-01-25T04:11:11;5.30;1.00
26621;DHT22;14253;44.840;10.444;2023-01-25T04:13:37;5.30;1.00
26621;DHT22;14253;44.840;10.444;2023-01-25T04:16:08;5.30;1.00
26621;DHT22;14253;44.840;10.444;2023-01-25T04:18:54;5.30;1.00
26621;DHT22;14253;44.840;10.444;2023-01-25T04:21:20;5.30;1.00
26621;DHT22;14253;44.840;10.444;2023-01-25T04:23:47;5.30;1.00
26621;DHT22;14253;44.840;10.444;2023-01-25T04:26:14;5.30;1.00
26621;DHT22;14253;44.840;10.444;2023-01-25T04:28:46;5.30;1.00
26621;DHT22;14253;44.840;10.444;2023-01-25T04:31:12;5.30;1.00
26621;DHT22;14253;44.840;10.444;2023-01-25T04:33:39;5.20;1.00
26621;DHT22;14253;44.840;10.444;2023-01-25T04:36:07;5.20;1.00
26621;DHT22;14253;44.840;10.444;2023-01-25T04:38:33;5.20;1.00
26621;DHT22;14253;44.840;10.444;2023-01-25T04:41:00;5.20;1.00
26621;DHT22;14253;44.840;10.444;2023-01-25T04:43:26;5.20;1.00
26621;DHT22;14253;44.840;10.444;2023-01-25T04:45:56;5.20;1.00
26621;DHT22;14253;44.840;10.444;2023-01-25T04:48:28;5.20;1.00
26621;DHT22;14253;44.840;10.444;2023-01-25T04:50:58;5.20;1.00
26621;DHT22;14253;44.840;10.444;2023-01-25T04:53:25;5.10;1.00
26621;DHT22;14253;44.840;10.444;2023-01-25T04:55:53;5.10;1.00
26621;DHT22;14253;44.840;10.444;2023-01-25T04:58:19;5.20;1.00
26621;DHT22;14253;44.840;10.444;2023-01-25T05:00:48;5.10;1.00
26621;DHT22;14253;44.840;10.444;2023-01-25T05:03:14;5.20;1.00
26621;DHT22;14253;44.840;10.444;2023-01-25T05:05:46;5.20;1.00
26621;DHT22;14253;44.840;10.444;2023-01-25T05:08:16;5.10;1.00
26621;DHT22;14253;44.840;10.444;2023-01-25T05:10:43;5.20;1.00
26621;DHT22;14253;44.840;10.444;2023-01-25T05:13:31;5.20;1.00
26621;DHT22;14253;44.840;10.444;2023-01-25T05:16:13;5.10;1.00
26621;DHT22;14253;44.840;10.444;2023-01-25T05:18:39;5.10;1.00
26621;DHT22;14253;44.840;10.444;2023-01-25T05:21:05;5.10;1.00
26621;DHT22;14253;44.840;10.444;2023-01-25T05:23:51;5.10;1.00
26621;DHT22;14253;44.840;10.444;2023-01-25T05:26:17;5.10;1.00
26621;DHT22;14253;44.840;10.444;2023-01-25T05:29:01;5.10;1.00
26621;DHT22;14253;44.840;10.444;2023-01-25T05:31:36;5.10;1.00
26621;DHT22;14253;44.840;10.444;2023-01-25T05:34:02;5.10;1.00
26621;DHT22;14253;44.840;10.444;2023-01-25T05:36:28;5.10;1.00
26621;DHT22;14253;44.840;10.444;2023-01-25T05:38:54;5.10;1.00
26621;DHT22;14253;44.840;10.444;2023-01-25T05:41:21;5.10;1.00
26621;DHT22;14253;44.840;10.444;2023-01-25T05:43:47;5.10;1.00
26621;DHT22;14253;44.840;10.444;2023-01-25T05:46:14;5.20;1.00
26621;DHT22;14253;44.840;10.444;2023-01-25T05:48:40;5.10;1.00
26621;DHT22;14253;44.840;10.444;2023-01-25T05:51:06;5.20;1.00
26621;DHT22;14253;44.840;10.444;2023-01-25T05:53:32;5.20;1.00
26621;DHT22;14253;44.840;10.444;2023-01-25T05:56:05;5.20;1.00
26621;DHT22;14253;44.840;10.444;2023-01-25T05:58:32;5.20;1.00
26621;DHT22;14253;44.840;10.444;2023-01-25T06:01:03;5.20;1.00
26621;DHT22;14253;44.840;10.444;2023-01-25T06:03:39;5.20;1.00
26621;DHT22;14253;44.840;10.444;2023-01-25T06:06:05;5.20;1.00
26621;DHT22;14253;44.840;10.444;2023-01-25T06:08:32;5.20;1.00
26621;DHT22;14253;44.840;10.444;2023-01-25T06:10:58;5.10;1.00
26621;DHT22;14253;44.840;10.444;2023-01-25T06:13:24;5.20;1.00
26621;DHT22;14253;44.840;10.444;2023-01-25T06:15:54;5.10;1.00
26621;DHT22;14253;44.840;10.444;2023-01-25T06:18:39;5.10;1.00
26621;DHT22;14253;44.840;10.444;2023-01-25T06:21:20;5.10;1.00
26621;DHT22;14253;44.840;10.444;2023-01-25T06:23:46;5.10;1.00
26621;DHT22;14253;44.840;10.444;2023-01-25T06:26:13;5.10;1.00
26621;DHT22;14253;44.840;10.444;2023-01-25T06:28:39;5.10;1.00
26621;DHT22;14253;44.840;10.444;2023-01-25T06:31:08;5.10;1.00
26621;DHT22;14253;44.840;10.444;2023-01-25T06:33:34;5.10;1.00
26621;DHT22;14253;44.840;10.444;2023-01-25T06:36:05;5.10;1.00
26621;DHT22;14253;44.840;10.444;2023-01-25T06:38:31;5.10;1.00
26621;DHT22;14253;44.840;10.444;2023-01-25T06:40:59;5.00;1.00
26621;DHT22;14253;44.840;10.444;2023-01-25T06:43:26;5.00;1.00
26621;DHT22;14253;44.840;10.444;2023-01-25T06:45:55;5.00;1.00
26621;DHT22;14253;44.840;10.444;2023-01-25T06:48:21;5.00;1.00
26621;DHT22;14253;44.840;10.444;2023-01-25T06:50:57;4.90;1.00
26621;DHT22;14253;44.840;10.444;2023-01-25T06:53:27;5.00;1.00
26621;DHT22;14253;44.840;10.444;2023-01-25T06:56:02;5.00;1.00
26621;DHT22;14253;44.840;10.444;2023-01-25T06:58:29;4.90;1.00
26621;DHT22;14253;44.840;10.444;2023-01-25T07:01:22;5.00;1.00
26621;DHT22;14253;44.840;10.444;2023-01-25T07:03:53;4.90;1.00
26621;DHT22;14253;44.840;10.444;2023-01-25T07:06:21;4.90;1.00
26621;DHT22;14253;44.840;10.444;2023-01-25T07:08:47;4.90;1.00
26621;DHT22;14253;44.840;10.444;2023-01-25T07:11:14;5.00;1.00
26621;DHT22;14253;44.840;10.444;2023-01-25T07:13:41;5.00;1.00
26621;DHT22;14253;44.840;10.444;2023-01-25T07:16:11;5.00;1.00
26621;DHT22;14253;44.840;10.444;2023-01-25T07:18:37;5.00;1.00
26621;DHT22;14253;44.840;10.444;2023-01-25T07:23:40;5.00;1.00
26621;DHT22;14253;44.840;10.444;2023-01-25T07:28:43;5.00;1.00
26621;DHT22;14253;44.840;10.444;2023-01-25T07:31:09;5.10;1.00
26621;DHT22;14253;44.840;10.444;2023-01-25T07:33:35;5.10;1.00
26621;DHT22;14253;44.840;10.444;2023-01-25T07:36:02;5.10;1.00
26621;DHT22;14253;44.840;10.444;2023-01-25T07:38:29;5.10;1.00
26621;DHT22;14253;44.840;10.444;2023-01-25T07:40:55;5.10;1.00
26621;DHT22;14253;44.840;10.444;2023-01-25T07:43:23;5.00;1.00
26621;DHT22;14253;44.840;10.444;2023-01-25T07:45:51;5.10;1.00
26621;DHT22;14253;44.840;10.444;2023-01-25T07:48:18;5.00;1.00
26621;DHT22;14253;44.840;10.444;2023-01-25T07:50:45;5.00;1.00
26621;DHT22;14253;44.840;10.444;2023-01-25T07:53:34;5.00;1.00
26621;DHT22;14253;44.840;10.444;2023-01-25T07:56:00;5.00;1.00
26621;DHT22;14253;44.840;10.444;2023-01-25T07:58:26;5.10;1.00
26621;DHT22;14253;44.840;10.444;2023-01-25T08:00:52;5.00;1.00
26621;DHT22;14253;44.840;10.444;2023-01-25T08:03:18;5.10;1.00
26621;DHT22;14253;44.840;10.444;2023-01-25T08:05:47;5.10;1.00
26621;DHT22;14253;44.840;10.444;2023-01-25T08:08:14;5.10;1.00
26621;DHT22;14253;44.840;10.444;2023-01-25T08:10:40;5.10;1.00
26621;DHT22;14253;44.840;10.444;2023-01-25T08:13:06;5.20;1.00
26621;DHT22;14253;44.840;10.444;2023-01-25T08:15:32;5.20;1.00
26621;DHT22;14253;44.840;10.444;2023-01-25T08:17:58;5.20;1.00
26621;DHT22;14253;44.840;10.444;2023-01-25T08:20:24;5.30;1.00
26621;DHT22;14253;44.840;10.444;2023-01-25T08:22:51;5.30;1.00
26621;DHT22;14253;44.840;10.444;2023-01-25T08:25:17;5.40;1.00
26621;DHT22;14253;44.840;10.444;2023-01-25T08:27:43;5.40;1.00
26621;DHT22;14253;44.840;10.444;2023-01-25T08:30:09;5.50;1.00
26621;DHT22;14253;44.840;10.444;2023-01-25T08:32:37;5.60;1.00
26621;DHT22;14253;44.840;10.444;2023-01-25T08:35:03;5.60;1.00
26621;DHT22;14253;44.840;10.444;2023-01-25T08:37:30;5.70;1.00
26621;DHT22;14253;44.840;10.444;2023-01-25T08:39:56;5.80;1.00
26621;DHT22;14253;44.840;10.444;2023-01-25T08:42:23;5.80;1.00
26621;DHT22;14253;44.840;10.444;2023-01-25T08:44:49;5.80;1.00
26621;DHT22;14253;44.840;10.444;2023-01-25T08:47:15;6.00;1.00
26621;DHT22;14253;44.840;10.444;2023-01-25T08:49:40;6.00;1.00
26621;DHT22;14253;44.840;10.444;2023-01-25T08:52:07;6.10;1.00
26621;DHT22;14253;44.840;10.444;2023-01-25T08:54:32;6.20;1.00
26621;DHT22;14253;44.840;10.444;2023-01-25T08:57:00;6.30;1.00
26621;DHT22;14253;44.840;10.444;2023-01-25T08:59:26;6.50;1.00
26621;DHT22;14253;44.840;10.444;2023-01-25T09:01:52;6.60;1.00
26621;DHT22;14253;44.840;10.444;2023-01-25T09:04:18;6.70;1.00
26621;DHT22;14253;44.840;10.444;2023-01-25T09:06:44;6.80;1.00
26621;DHT22;14253;44.840;10.444;2023-01-25T09:09:11;6.90;1.00
26621;DHT22;14253;44.840;10.444;2023-01-25T09:11:37;7.20;1.00
26621;DHT22;14253;44.840;10.444;2023-01-25T09:14:04;7.30;1.00
26621;DHT22;14253;44.840;10.444;2023-01-25T09:16:31;7.40;1.00
26621;DHT22;14253;44.840;10.444;2023-01-25T09:18:59;7.60;1.00
26621;DHT22;14253;44.840;10.444;2023-01-25T09:21:25;7.70;1.00
26621;DHT22;14253;44.840;10.444;2023-01-25T09:23:52;7.80;1.00
26621;DHT22;14253;44.840;10.444;2023-01-25T09:26:19;8.00;1.00
26621;DHT22;14253;44.840;10.444;2023-01-25T09:28:47;8.10;1.00
26621;DHT22;14253;44.840;10.444;2023-01-25T09:31:14;8.10;99.90
26621;DHT22;14253;44.840;10.444;2023-01-25T09:33:58;8.30;99.90
26621;DHT22;14253;44.840;10.444;2023-01-25T09:36:25;8.40;99.90
26621;DHT22;14253;44.840;10.444;2023-01-25T09:38:51;8.40;99.90
26621;DHT22;14253;44.840;10.444;2023-01-25T09:41:39;8.40;99.90
26621;DHT22;14253;44.840;10.444;2023-01-25T09:44:41;8.60;99.90
26621;DHT22;14253;44.840;10.444;2023-01-25T09:49:57;8.60;99.90
26621;DHT22;14253;44.840;10.444;2023-01-25T09:53:04;8.50;99.90
26621;DHT22;14253;44.840;10.444;2023-01-25T09:55:32;8.50;99.90
26621;DHT22;14253;44.840;10.444;2023-01-25T09:58:00;8.60;99.90
26621;DHT22;14253;44.840;10.444;2023-01-25T10:00:36;8.60;99.90
26621;DHT22;14253;44.840;10.444;2023-01-25T10:03:41;8.70;99.90
26621;DHT22;14253;44.840;10.444;2023-01-25T10:06:11;8.60;99.90
26621;DHT22;14253;44.840;10.444;2023-01-25T10:11:32;8.80;99.90
26621;DHT22;14253;44.840;10.444;2023-01-25T10:13:59;8.90;99.90
26621;DHT22;14253;44.840;10.444;2023-01-25T10:16:31;8.90;99.90
26621;DHT22;14253;44.840;10.444;2023-01-25T10:21:41;8.70;99.90
26621;DHT22;14253;44.840;10.444;2023-01-25T10:29:41;8.60;99.90
26621;DHT22;14253;44.840;10.444;2023-01-25T10:32:29;8.60;99.90
26621;DHT22;14253;44.840;10.444;2023-01-25T10:35:04;8.60;99.90
26621;DHT22;14253;44.840;10.444;2023-01-25T10:37:35;8.80;99.90
26621;DHT22;14253;44.840;10.444;2023-01-25T10:40:05;9.00;99.90
26621;DHT22;14253;44.840;10.444;2023-01-25T10:42:53;9.30;99.90
26621;DHT22;14253;44.840;10.444;2023-01-25T10:45:19;9.40;99.90
26621;DHT22;14253;44.840;10.444;2023-01-25T10:47:59;9.50;99.90
26621;DHT22;14253;44.840;10.444;2023-01-25T10:55:58;9.80;99.90
26621;DHT22;14253;44.840;10.444;2023-01-25T10:58:30;9.80;99.90
26621;DHT22;14253;44.840;10.444;2023-01-25T11:00:56;9.70;99.90
26621;DHT22;14253;44.840;10.444;2023-01-25T11:03:22;9.60;99.90
26621;DHT22;14253;44.840;10.444;2023-01-25T11:05:56;9.60;99.90
26621;DHT22;14253;44.840;10.444;2023-01-25T11:08:24;9.50;99.90
26621;DHT22;14253;44.840;10.444;2023-01-25T11:10:51;9.50;99.90
26621;DHT22;14253;44.840;10.444;2023-01-25T11:13:26;9.60;99.90
26621;DHT22;14253;44.840;10.444;2023-01-25T11:18:30;9.50;99.90
26621;DHT22;14253;44.840;10.444;2023-01-25T11:21:11;9.50;99.90
26621;DHT22;14253;44.840;10.444;2023-01-25T11:23:56;9.50;99.90
26621;DHT22;14253;44.840;10.444;2023-01-25T11:26:28;9.50;99.90
26621;DHT22;14253;44.840;10.444;2023-01-25T11:29:18;9.60;99.90
26621;DHT22;14253;44.840;10.444;2023-01-25T11:31:54;9.60;99.90
26621;DHT22;14253;44.840;10.444;2023-01-25T11:34:26;9.70;99.90
26621;DHT22;14253;44.840;10.444;2023-01-25T11:45:31;9.90;99.90
26621;DHT22;14253;44.840;10.444;2023-01-25T11:51:05;9.80;99.90
26621;DHT22;14253;44.840;10.444;2023-01-25T11:56:32;9.70;99.90
26621;DHT22;14253;44.840;10.444;2023-01-25T12:11:05;9.80;99.90
26621;DHT22;14253;44.840;10.444;2023-01-25T12:19:52;10.70;99.90
26621;DHT22;14253;44.840;10.444;2023-01-25T12:28:14;10.00;99.90
26621;DHT22;14253;44.840;10.444;2023-01-25T12:31:23;9.70;99.90
26621;DHT22;14253;44.840;10.444;2023-01-25T12:34:02;9.50;99.90
26621;DHT22;14253;44.840;10.444;2023-01-25T12:36:36;9.40;99.90
26621;DHT22;14253;44.840;10.444;2023-01-25T12:39:04;9.30;99.90
26621;DHT22;14253;44.840;10.444;2023-01-25T12:41:44;9.20;99.90
26621;DHT22;14253;44.840;10.444;2023-01-25T12:44:26;9.20;99.90
26621;DHT22;14253;44.840;10.444;2023-01-25T12:52:36;9.40;99.90
26621;DHT22;14253;44.840;10.444;2023-01-25T12:55:11;9.40;99.90
26621;DHT22;14253;44.840;10.444;2023-01-25T12:57:52;9.40;99.90
26621;DHT22;14253;44.840;10.444;2023-01-25T13:00:41;9.50;99.90
26621;DHT22;14253;44.840;10.444;2023-01-25T13:06:43;10.20;99.90
26621;DHT22;14253;44.840;10.444;2023-01-25T13:09:20;10.50;99.90
26621;DHT22;14253;44.840;10.444;2023-01-25T13:11:48;10.90;99.90
26621;DHT22;14253;44.840;10.444;2023-01-25T13:16:49;11.10;99.90
26621;DHT22;14253;44.840;10.444;2023-01-25T13:21:57;10.60;99.90
26621;DHT22;14253;44.840;10.444;2023-01-25T13:24:25;10.30;99.90
26621;DHT22;14253;44.840;10.444;2023-01-25T13:31:59;9.80;99.90
26621;DHT22;14253;44.840;10.444;2023-01-25T13:37:23;9.50;99.90
26621;DHT22;14253;44.840;10.444;2023-01-25T13:39:49;9.40;99.90
26621;DHT22;14253;44.840;10.444;2023-01-25T13:42:21;9.50;99.90
26621;DHT22;14253;44.840;10.444;2023-01-25T13:44:53;9.50;99.90
26621;DHT22;14253;44.840;10.444;2023-01-25T13:47:26;9.60;99.90
26621;DHT22;14253;44.840;10.444;2023-01-25T13:52:58;9.70;99.90
26621;DHT22;14253;44.840;10.444;2023-01-25T13:55:24;9.70;99.90
26621;DHT22;14253;44.840;10.444;2023-01-25T13:57:50;10.00;99.90
26621;DHT22;14253;44.840;10.444;2023-01-25T14:00:17;10.10;99.90
26621;DHT22;14253;44.840;10.444;2023-01-25T14:02:45;10.20;99.90
26621;DHT22;14253;44.840;10.444;2023-01-25T14:05:21;10.20;99.90
26621;DHT22;14253;44.840;10.444;2023-01-25T14:07:50;10.20;99.90
26621;DHT22;14253;44.840;10.444;2023-01-25T14:10:23;10.30;99.90
26621;DHT22;14253;44.840;10.444;2023-01-25T14:12:53;10.40;99.90
26621;DHT22;14253;44.840;10.444;2023-01-25T14:15:31;10.20;99.90
26621;DHT22;14253;44.840;10.444;2023-01-25T14:20:39;10.30;99.90
26621;DHT22;14253;44.840;10.444;2023-01-25T14:23:28;10.40;99.90
26621;DHT22;14253;44.840;10.444;2023-01-25T14:25:56;10.50;99.90
26621;DHT22;14253;44.840;10.444;2023-01-25T14:28:26;10.30;99.90
26621;DHT22;14253;44.840;10.444;2023-01-25T14:30:58;10.20;99.90
26621;DHT22;14253;44.840;10.444;2023-01-25T14:33:32;10.20;99.90
26621;DHT22;14253;44.840;10.444;2023-01-25T14:36:13;10.20;99.90
26621;DHT22;14253;44.840;10.444;2023-01-25T14:38:43;10.20;99.90
26621;DHT22;14253;44.840;10.444;2023-01-25T14:41:20;10.10;99.90
26621;DHT22;14253;44.840;10.444;2023-01-25T14:43:52;10.10;99.90
26621;DHT22;14253;44.840;10.444;2023-01-25T14:49:05;10.10;99.90
26621;DHT22;14253;44.840;10.444;2023-01-25T14:51:31;10.20;99.90
26621;DHT22;14253;44.840;10.444;2023-01-25T14:54:00;10.20;99.90
26621;DHT22;14253;44.840;10.444;2023-01-25T14:59:04;10.50;99.90
26621;DHT22;14253;44.840;10.444;2023-01-25T15:01:38;10.40;99.90
26621;DHT22;14253;44.840;10.444;2023-01-25T15:04:12;10.30;99.90
26621;DHT22;14253;44.840;10.444;2023-01-25T15:06:45;10.20;99.90
26621;DHT22;14253;44.840;10.444;2023-01-25T15:09:32;9.90;99.90
26621;DHT22;14253;44.840;10.444;2023-01-25T15:12:00;9.70;99.90
26621;DHT22;14253;44.840;10.444;2023-01-25T15:14:26;9.60;99.90
26621;DHT22;14253;44.840;10.444;2023-01-25T15:16:53;9.40;99.90
26621;DHT22;14253;44.840;10.444;2023-01-25T15:19:30;9.20;99.90
26621;DHT22;14253;44.840;10.444;2023-01-25T15:21:58;9.10;99.90
26621;DHT22;14253;44.840;10.444;2023-01-25T15:24:25;8.90;99.90
26621;DHT22;14253;44.840;10.444;2023-01-25T15:26:53;8.80;99.90
26621;DHT22;14253;44.840;10.444;2023-01-25T15:29:24;8.80;99.90
26621;DHT22;14253;44.840;10.444;2023-01-25T15:31:55;8.60;99.90
26621;DHT22;14253;44.840;10.444;2023-01-25T15:34:25;8.60;99.90
26621;DHT22;14253;44.840;10.444;2023-01-25T15:36:53;8.60;99.90
26621;DHT22;14253;44.840;10.444;2023-01-25T15:39:20;8.60;99.90
26621;DHT22;14253;44.840;10.444;2023-01-25T15:41:47;8.50;99.90
26621;DHT22;14253;44.840;10.444;2023-01-25T15:44:14;8.40;99.90
26621;DHT22;14253;44.840;10.444;2023-01-25T15:46:44;8.30;99.90
26621;DHT22;14253;44.840;10.444;2023-01-25T15:49:19;8.20;99.90
26621;DHT22;14253;44.840;10.444;2023-01-25T15:51:45;8.10;99.90
26621;DHT22;14253;44.840;10.444;2023-01-25T15:54:12;8.00;99.90
26621;DHT22;14253;44.840;10.444;2023-01-25T15:56:39;7.90;99.90
26621;DHT22;14253;44.840;10.444;2023-01-25T15:59:11;7.90;99.90
26621;DHT22;14253;44.840;10.444;2023-01-25T16:01:38;7.80;99.90
26621;DHT22;14253;44.840;10.444;2023-01-25T16:04:04;7.70;99.90
26621;DHT22;14253;44.840;10.444;2023-01-25T16:09:25;7.50;99.90
26621;DHT22;14253;44.840;10.444;2023-01-25T16:11:54;7.40;99.90
26621;DHT22;14253;44.840;10.444;2023-01-25T16:14:21;7.30;99.90
26621;DHT22;14253;44.840;10.444;2023-01-25T16:16:50;7.30;99.90
26621;DHT22;14253;44.840;10.444;2023-01-25T16:19:18;7.20;99.90
26621;DHT22;14253;44.840;10.444;2023-01-25T16:21:44;7.10;99.90
26621;DHT22;14253;44.840;10.444;2023-01-25T16:24:11;7.10;99.90
26621;DHT22;14253;44.840;10.444;2023-01-25T16:26:52;7.00;99.90
26621;DHT22;14253;44.840;10.444;2023-01-25T16:29:18;6.90;99.90
26621;DHT22;14253;44.840;10.444;2023-01-25T16:31:44;6.90;99.90
26621;DHT22;14253;44.840;10.444;2023-01-25T16:34:10;6.80;99.90
26621;DHT22;14253;44.840;10.444;2023-01-25T16:36:36;6.70;99.90
26621;DHT22;14253;44.840;10.444;2023-01-25T16:39:08;6.60;99.90
26621;DHT22;14253;44.840;10.444;2023-01-25T16:41:34;6.60;99.90
26621;DHT22;14253;44.840;10.444;2023-01-25T16:44:01;6.50;99.90
26621;DHT22;14253;44.840;10.444;2023-01-25T16:46:27;6.50;99.90
26621;DHT22;14253;44.840;10.444;2023-01-25T16:48:56;6.40;99.90
26621;DHT22;14253;44.840;10.444;2023-01-25T16:51:26;6.30;99.90
26621;DHT22;14253;44.840;10.444;2023-01-25T16:53:55;6.30;99.90
26621;DHT22;14253;44.840;10.444;2023-01-25T16:56:31;6.20;99.90
26621;DHT22;14253;44.840;10.444;2023-01-25T16:59:06;6.10;99.90
26621;DHT22;14253;44.840;10.444;2023-01-25T17:01:34;6.00;99.90
26621;DHT22;14253;44.840;10.444;2023-01-25T17:04:03;6.00;99.90
26621;DHT22;14253;44.840;10.444;2023-01-25T17:06:32;6.00;99.90
26621;DHT22;14253;44.840;10.444;2023-01-25T17:09:01;5.90;99.90
26621;DHT22;14253;44.840;10.444;2023-01-25T17:11:28;5.90;99.90
26621;DHT22;14253;44.840;10.444;2023-01-25T17:13:56;5.80;99.90
26621;DHT22;14253;44.840;10.444;2023-01-25T17:16:24;5.80;99.90
26621;DHT22;14253;44.840;10.444;2023-01-25T17:18:55;5.70;99.90
26621;DHT22;14253;44.840;10.444;2023-01-25T17:21:21;5.70;99.90
26621;DHT22;14253;44.840;10.444;2023-01-25T17:23:48;5.70;99.90
26621;DHT22;14253;44.840;10.444;2023-01-25T17:26:15;5.60;99.90
26621;DHT22;14253;44.840;10.444;2023-01-25T17:28:42;5.60;99.90
26621;DHT22;14253;44.840;10.444;2023-01-25T17:31:23;5.50;99.90
26621;DHT22;14253;44.840;10.444;2023-01-25T17:33:51;5.50;99.90
26621;DHT22;14253;44.840;10.444;2023-01-25T17:36:17;5.40;99.90
26621;DHT22;14253;44.840;10.444;2023-01-25T17:38:44;5.40;99.90
26621;DHT22;14253;44.840;10.444;2023-01-25T17:41:13;5.30;99.90
26621;DHT22;14253;44.840;10.444;2023-01-25T17:43:40;5.20;99.90
26621;DHT22;14253;44.840;10.444;2023-01-25T17:46:20;5.20;99.90
26621;DHT22;14253;44.840;10.444;2023-01-25T17:48:47;5.20;99.90